KIMT/IMT METAR and TAF weather

Enter ICAO airport designator
Station Type Date Time Source
KIMT METAR 2020/11/27 13:11 UTC NOAA

KIMT 271311Z AUTO 19004KT 10SM SCT018 M02/M06 A2996 RMK AO2 T10171056


Station Type Date Time Source
KIMT Decoded METAR 2020/11/27 13:11 UTC NOAA

IRON MOUNTAIN FORD AIRPORT, MI, United States (KIMT) 45-49N 88-07W 349M
Nov 27, 2020 - 08:11 AM EST / 2020.11.27 1311 UTC
Wind: from the S (190 degrees) at 5 MPH (4 KT):0
Visibility: 10 mile(s):0
Sky conditions: partly cloudy
Temperature: 28.9 F (-1.7 C)
Windchill: 23 F (-5 C):1
Dew Point: 21.9 F (-5.6 C)
Relative Humidity: 74%
Pressure (altimeter): 29.96 in. Hg (1014 hPa)
ob: KIMT 271311Z AUTO 19004KT 10SM SCT018 M02/M06 A2996 RMK AO2 T10171056
cycle: 13

Station Type Date Time Source
KIMT TAF UTC NOAA

Error!

Example: see airport list